sensor_id;sensor_type;location;lat;lon;timestamp;pressure;altitude;pressure_sealevel;temperature;humidity
75699;BME280;64313;51.018;13.742;2023-09-08T00:02:00;100297.84;;;19.48;61.68
75699;BME280;64313;51.018;13.742;2023-09-08T00:04:25;100290.16;;;19.45;61.28
75699;BME280;64313;51.018;13.742;2023-09-08T00:06:50;100292.78;;;19.40;62.14
75699;BME280;64313;51.018;13.742;2023-09-08T00:09:16;100293.28;;;19.37;62.25
75699;BME280;64313;51.018;13.742;2023-09-08T00:11:41;100285.63;;;19.34;62.68
75699;BME280;64313;51.018;13.742;2023-09-08T00:14:07;100293.75;;;19.34;62.29
75699;BME280;64313;51.018;13.742;2023-09-08T00:16:32;100298.13;;;19.35;62.68
75699;BME280;64313;51.018;13.742;2023-09-08T00:18:58;100294.84;;;19.33;62.77
75699;BME280;64313;51.018;13.742;2023-09-08T00:21:24;100297.19;;;19.29;62.70
75699;BME280;64313;51.018;13.742;2023-09-08T00:23:51;100293.91;;;19.27;62.99
75699;BME280;64313;51.018;13.742;2023-09-08T00:26:16;100297.09;;;19.24;63.11
75699;BME280;64313;51.018;13.742;2023-09-08T00:28:42;100291.34;;;19.20;63.08
75699;BME280;64313;51.018;13.742;2023-09-08T00:31:07;100292.41;;;19.19;62.77
75699;BME280;64313;51.018;13.742;2023-09-08T00:33:33;100293.97;;;19.15;63.30
75699;BME280;64313;51.018;13.742;2023-09-08T00:35:58;100282.78;;;19.12;63.90
75699;BME280;64313;51.018;13.742;2023-09-08T00:38:24;100286.56;;;19.11;63.71
75699;BME280;64313;51.018;13.742;2023-09-08T00:40:49;100290.31;;;19.10;63.36
75699;BME280;64313;51.018;13.742;2023-09-08T00:43:16;100296.50;;;19.05;63.44
75699;BME280;64313;51.018;13.742;2023-09-08T00:45:42;100294.22;;;19.02;63.42
75699;BME280;64313;51.018;13.742;2023-09-08T00:48:09;100294.22;;;19.02;63.34
75699;BME280;64313;51.018;13.742;2023-09-08T00:50:35;100296.84;;;18.97;63.63
75699;BME280;64313;51.018;13.742;2023-09-08T00:53:02;100295.22;;;18.96;63.83
75699;BME280;64313;51.018;13.742;2023-09-08T00:55:28;100303.22;;;18.91;63.38
75699;BME280;64313;51.018;13.742;2023-09-08T00:57:54;100300.41;;;18.86;64.34
75699;BME280;64313;51.018;13.742;2023-09-08T01:00:20;100300.41;;;18.86;64.06
75699;BME280;64313;51.018;13.742;2023-09-08T01:02:45;100293.81;;;18.81;63.65
75699;BME280;64313;51.018;13.742;2023-09-08T01:05:11;100305.16;;;18.78;64.21
75699;BME280;64313;51.018;13.742;2023-09-08T01:07:37;100304.78;;;18.75;64.61
75699;BME280;64313;51.018;13.742;2023-09-08T01:10:03;100303.13;;;18.74;64.70
75699;BME280;64313;51.018;13.742;2023-09-08T01:12:31;100302.53;;;18.72;64.52
75699;BME280;64313;51.018;13.742;2023-09-08T01:14:57;100299.81;;;18.72;63.72
75699;BME280;64313;51.018;13.742;2023-09-08T01:17:22;100299.81;;;18.72;63.56
75699;BME280;64313;51.018;13.742;2023-09-08T01:19:48;100301.72;;;18.71;63.60
75699;BME280;64313;51.018;13.742;2023-09-08T01:22:48;100298.06;;;18.66;64.13
75699;BME280;64313;51.018;13.742;2023-09-08T01:25:27;100302.31;;;18.62;64.00
75699;BME280;64313;51.018;13.742;2023-09-08T01:27:55;100303.38;;;18.60;64.07
75699;BME280;64313;51.018;13.742;2023-09-08T01:30:23;100294.66;;;18.58;64.30
75699;BME280;64313;51.018;13.742;2023-09-08T01:32:50;100298.66;;;18.56;63.80
75699;BME280;64313;51.018;13.742;2023-09-08T01:35:17;100291.63;;;18.55;63.89
75699;BME280;64313;51.018;13.742;2023-09-08T01:37:47;100295.16;;;18.55;63.98
75699;BME280;64313;51.018;13.742;2023-09-08T01:40:13;100291.03;;;18.53;63.97
75699;BME280;64313;51.018;13.742;2023-09-08T01:42:39;100293.75;;;18.53;64.38
75699;BME280;64313;51.018;13.742;2023-09-08T01:45:06;100299.03;;;18.48;64.10
75699;BME280;64313;51.018;13.742;2023-09-08T01:47:32;100299.53;;;18.45;63.93
75699;BME280;64313;51.018;13.742;2023-09-08T01:49:59;100292.44;;;18.44;64.84
75699;BME280;64313;51.018;13.742;2023-09-08T01:52:24;100293.16;;;18.39;64.80
75699;BME280;64313;51.018;13.742;2023-09-08T01:54:50;100291.75;;;18.36;64.63
75699;BME280;64313;51.018;13.742;2023-09-08T01:57:15;100295.16;;;18.32;64.91
75699;BME280;64313;51.018;13.742;2023-09-08T01:59:40;100282.47;;;18.32;64.71
75699;BME280;64313;51.018;13.742;2023-09-08T02:02:06;100288.31;;;18.29;65.02
75699;BME280;64313;51.018;13.742;2023-09-08T02:04:32;100286.09;;;18.26;65.35
75699;BME280;64313;51.018;13.742;2023-09-08T02:06:58;100284.69;;;18.24;65.27
75699;BME280;64313;51.018;13.742;2023-09-08T02:09:31;100279.97;;;18.19;65.56
75699;BME280;64313;51.018;13.742;2023-09-08T02:11:57;100281.53;;;18.15;66.10
75699;BME280;64313;51.018;13.742;2023-09-08T02:14:22;100282.81;;;18.12;65.88
75699;BME280;64313;51.018;13.742;2023-09-08T02:16:47;100283.03;;;18.11;65.79
75699;BME280;64313;51.018;13.742;2023-09-08T02:19:13;100283.03;;;18.11;65.43
75699;BME280;64313;51.018;13.742;2023-09-08T02:21:38;100283.03;;;18.11;65.47
75699;BME280;64313;51.018;13.742;2023-09-08T02:24:03;100287.28;;;18.07;65.96
75699;BME280;64313;51.018;13.742;2023-09-08T02:26:29;100290.56;;;18.09;65.40
75699;BME280;64313;51.018;13.742;2023-09-08T02:28:57;100287.28;;;18.07;65.39
75699;BME280;64313;51.018;13.742;2023-09-08T02:31:24;100289.41;;;18.05;65.75
75699;BME280;64313;51.018;13.742;2023-09-08T02:33:49;100289.28;;;18.00;66.22
75699;BME280;64313;51.018;13.742;2023-09-08T02:36:15;100292.44;;;17.97;66.16
75699;BME280;64313;51.018;13.742;2023-09-08T02:38:40;100287.28;;;17.95;66.04
75699;BME280;64313;51.018;13.742;2023-09-08T02:41:06;100290.44;;;17.92;66.20
75699;BME280;64313;51.018;13.742;2023-09-08T02:43:32;100287.97;;;17.90;66.35
75699;BME280;64313;51.018;13.742;2023-09-08T02:45:57;100292.78;;;17.88;66.65
75699;BME280;64313;51.018;13.742;2023-09-08T02:48:22;100282.78;;;17.89;65.99
75699;BME280;64313;51.018;13.742;2023-09-08T02:50:48;100288.44;;;17.87;66.13
75699;BME280;64313;51.018;13.742;2023-09-08T02:53:13;100291.16;;;17.87;66.34
75699;BME280;64313;51.018;13.742;2023-09-08T02:55:38;100289.47;;;17.86;66.35
75699;BME280;64313;51.018;13.742;2023-09-08T02:58:04;100284.66;;;17.88;66.16
75699;BME280;64313;51.018;13.742;2023-09-08T03:00:29;100282.22;;;17.87;66.09
75699;BME280;64313;51.018;13.742;2023-09-08T03:02:55;100281.16;;;17.88;66.13
75699;BME280;64313;51.018;13.742;2023-09-08T03:05:20;100279.25;;;17.88;65.83
75699;BME280;64313;51.018;13.742;2023-09-08T03:07:48;100272.22;;;17.87;66.25
75699;BME280;64313;51.018;13.742;2023-09-08T03:10:14;100275.13;;;17.86;66.02
75699;BME280;64313;51.018;13.742;2023-09-08T03:12:40;100269.13;;;17.84;66.19
75699;BME280;64313;51.018;13.742;2023-09-08T03:15:06;100268.56;;;17.82;66.22
75699;BME280;64313;51.018;13.742;2023-09-08T03:17:31;100254.44;;;17.80;65.97
75699;BME280;64313;51.018;13.742;2023-09-08T03:19:57;100257.34;;;17.78;66.37
75699;BME280;64313;51.018;13.742;2023-09-08T03:22:22;100252.63;;;17.73;66.39
75699;BME280;64313;51.018;13.742;2023-09-08T03:24:50;100251.22;;;17.71;66.46
75699;BME280;64313;51.018;13.742;2023-09-08T03:27:15;100247.34;;;17.67;66.46
75699;BME280;64313;51.018;13.742;2023-09-08T03:29:40;100252.97;;;17.65;66.09
75699;BME280;64313;51.018;13.742;2023-09-08T03:32:06;100249.09;;;17.61;66.87
75699;BME280;64313;51.018;13.742;2023-09-08T03:34:31;100253.06;;;17.59;66.76
75699;BME280;64313;51.018;13.742;2023-09-08T03:36:57;100257.91;;;17.57;66.95
75699;BME280;64313;51.018;13.742;2023-09-08T03:39:22;100252.94;;;17.53;67.18
75699;BME280;64313;51.018;13.742;2023-09-08T03:41:47;100260.72;;;17.50;67.36
75699;BME280;64313;51.018;13.742;2023-09-08T03:44:13;100256.59;;;17.47;67.50
75699;BME280;64313;51.018;13.742;2023-09-08T03:46:38;100254.09;;;17.46;67.60
75699;BME280;64313;51.018;13.742;2023-09-08T03:49:03;100246.25;;;17.44;66.86
75699;BME280;64313;51.018;13.742;2023-09-08T03:51:29;100250.84;;;17.44;66.65
75699;BME280;64313;51.018;13.742;2023-09-08T03:53:54;100251.06;;;17.42;67.23
75699;BME280;64313;51.018;13.742;2023-09-08T03:56:20;100249.84;;;17.38;67.56
75699;BME280;64313;51.018;13.742;2023-09-08T03:58:46;100251.75;;;17.38;67.92
75699;BME280;64313;51.018;13.742;2023-09-08T04:01:11;100246.81;;;17.35;67.81
75699;BME280;64313;51.018;13.742;2023-09-08T04:03:36;100245.38;;;17.32;67.54
75699;BME280;64313;51.018;13.742;2023-09-08T04:06:03;100240.66;;;17.27;67.26
75699;BME280;64313;51.018;13.742;2023-09-08T04:08:28;100242.16;;;17.23;67.91
75699;BME280;64313;51.018;13.742;2023-09-08T04:10:54;100245.81;;;17.17;68.71
75699;BME280;64313;51.018;13.742;2023-09-08T04:13:19;100248.16;;;17.14;68.46
75699;BME280;64313;51.018;13.742;2023-09-08T04:15:45;100241.34;;;17.11;68.09
75699;BME280;64313;51.018;13.742;2023-09-08T04:18:10;100244.47;;;17.08;68.09
75699;BME280;64313;51.018;13.742;2023-09-08T04:20:36;100252.22;;;17.04;68.29
75699;BME280;64313;51.018;13.742;2023-09-08T04:23:01;100251.00;;;17.00;68.70
75699;BME280;64313;51.018;13.742;2023-09-08T04:25:27;100250.66;;;16.97;68.73
75699;BME280;64313;51.018;13.742;2023-09-08T04:27:52;100248.63;;;16.92;68.97
75699;BME280;64313;51.018;13.742;2023-09-08T04:30:18;100254.25;;;16.91;68.99
75699;BME280;64313;51.018;13.742;2023-09-08T04:32:43;100247.44;;;16.88;69.69
75699;BME280;64313;51.018;13.742;2023-09-08T04:35:09;100248.72;;;16.85;69.35
75699;BME280;64313;51.018;13.742;2023-09-08T04:37:35;100257.88;;;16.84;69.34
75699;BME280;64313;51.018;13.742;2023-09-08T04:40:03;100258.69;;;16.85;69.27
75699;BME280;64313;51.018;13.742;2023-09-08T04:42:29;100260.56;;;16.84;69.69
75699;BME280;64313;51.018;13.742;2023-09-08T04:44:56;100262.47;;;16.84;69.18
75699;BME280;64313;51.018;13.742;2023-09-08T04:47:22;100262.47;;;16.84;69.01
75699;BME280;64313;51.018;13.742;2023-09-08T04:49:47;100263.50;;;16.83;69.62
75699;BME280;64313;51.018;13.742;2023-09-08T04:52:13;100257.28;;;16.82;69.66
75699;BME280;64313;51.018;13.742;2023-09-08T04:54:39;100262.47;;;16.84;69.90
75699;BME280;64313;51.018;13.742;2023-09-08T04:57:04;100264.09;;;16.85;69.74
75699;BME280;64313;51.018;13.742;2023-09-08T04:59:30;100264.09;;;16.85;70.06
75699;BME280;64313;51.018;13.742;2023-09-08T05:01:56;100267.41;;;16.87;69.96
75699;BME280;64313;51.018;13.742;2023-09-08T05:04:21;100263.63;;;16.88;69.99
75699;BME280;64313;51.018;13.742;2023-09-08T05:06:46;100267.19;;;16.89;69.85
75699;BME280;64313;51.018;13.742;2023-09-08T05:09:13;100271.31;;;16.91;70.29
75699;BME280;64313;51.018;13.742;2023-09-08T05:11:40;100266.72;;;16.92;69.40
75699;BME280;64313;51.018;13.742;2023-09-08T05:14:05;100268.16;;;16.94;69.68
75699;BME280;64313;51.018;13.742;2023-09-08T05:16:31;100267.91;;;16.96;69.64
75699;BME280;64313;51.018;13.742;2023-09-08T05:19:05;100269.91;;;17.00;68.85
75699;BME280;64313;51.018;13.742;2023-09-08T05:21:32;100276.75;;;17.03;69.27
75699;BME280;64313;51.018;13.742;2023-09-08T05:23:58;100271.13;;;17.04;69.28
75699;BME280;64313;51.018;13.742;2023-09-08T05:26:23;100271.72;;;17.06;69.26
75699;BME280;64313;51.018;13.742;2023-09-08T05:28:48;100269.63;;;17.08;69.66
75699;BME280;64313;51.018;13.742;2023-09-08T05:31:14;100267.88;;;17.14;69.25
75699;BME280;64313;51.018;13.742;2023-09-08T05:33:39;100278.00;;;17.19;68.46
75699;BME280;64313;51.018;13.742;2023-09-08T05:36:05;100275.66;;;17.22;69.10
75699;BME280;64313;51.018;13.742;2023-09-08T05:38:30;100279.56;;;17.26;68.99
75699;BME280;64313;51.018;13.742;2023-09-08T05:40:56;100280.50;;;17.32;69.13
75699;BME280;64313;51.018;13.742;2023-09-08T05:43:24;100286.06;;;17.37;68.42
75699;BME280;64313;51.018;13.742;2023-09-08T05:45:51;100288.69;;;17.44;68.29
75699;BME280;64313;51.018;13.742;2023-09-08T05:48:17;100282.34;;;17.50;69.02
75699;BME280;64313;51.018;13.742;2023-09-08T05:50:42;100283.06;;;17.57;68.88
75699;BME280;64313;51.018;13.742;2023-09-08T05:53:08;100284.59;;;17.65;68.29
75699;BME280;64313;51.018;13.742;2023-09-08T05:55:33;100285.94;;;17.74;68.21
75699;BME280;64313;51.018;13.742;2023-09-08T05:57:58;100283.50;;;17.84;68.62
75699;BME280;64313;51.018;13.742;2023-09-08T06:00:24;100283.38;;;17.91;68.27
75699;BME280;64313;51.018;13.742;2023-09-08T06:02:51;100281.16;;;18.00;68.16
75699;BME280;64313;51.018;13.742;2023-09-08T06:05:17;100278.91;;;18.08;68.37
75699;BME280;64313;51.018;13.742;2023-09-08T06:07:43;100282.13;;;18.17;67.98
75699;BME280;64313;51.018;13.742;2023-09-08T06:10:09;100283.16;;;18.28;67.88
75699;BME280;64313;51.018;13.742;2023-09-08T06:12:35;100281.75;;;18.37;68.26
75699;BME280;64313;51.018;13.742;2023-09-08T06:15:02;100280.31;;;18.46;67.71
75699;BME280;64313;51.018;13.742;2023-09-08T06:17:29;100271.59;;;18.56;67.39
75699;BME280;64313;51.018;13.742;2023-09-08T06:19:54;100275.34;;;18.67;66.78
75699;BME280;64313;51.018;13.742;2023-09-08T06:22:20;100266.41;;;18.78;67.11
75699;BME280;64313;51.018;13.742;2023-09-08T06:24:46;100264.50;;;18.90;66.29
75699;BME280;64313;51.018;13.742;2023-09-08T06:27:11;100262.69;;;18.96;66.00
75699;BME280;64313;51.018;13.742;2023-09-08T06:29:38;100267.13;;;19.02;66.08
75699;BME280;64313;51.018;13.742;2023-09-08T06:32:06;100259.94;;;19.08;65.82
75699;BME280;64313;51.018;13.742;2023-09-08T06:34:32;100266.03;;;19.15;65.92
75699;BME280;64313;51.018;13.742;2023-09-08T06:36:59;100266.13;;;19.20;65.82
75699;BME280;64313;51.018;13.742;2023-09-08T06:39:25;100269.78;;;19.26;65.67
75699;BME280;64313;51.018;13.742;2023-09-08T06:41:51;100269.59;;;19.32;65.50
75699;BME280;64313;51.018;13.742;2023-09-08T06:44:20;100271.34;;;19.38;65.69
75699;BME280;64313;51.018;13.742;2023-09-08T06:46:45;100271.19;;;19.45;65.14
75699;BME280;64313;51.018;13.742;2023-09-08T06:49:10;100269.13;;;19.52;65.36
75699;BME280;64313;51.018;13.742;2023-09-08T06:51:36;100273.59;;;19.58;65.00
75699;BME280;64313;51.018;13.742;2023-09-08T06:54:03;100269.91;;;19.64;64.73
75699;BME280;64313;51.018;13.742;2023-09-08T06:56:36;100269.50;;;19.73;65.10
75699;BME280;64313;51.018;13.742;2023-09-08T06:59:03;100271.25;;;19.79;64.45
75699;BME280;64313;51.018;13.742;2023-09-08T07:01:29;100275.69;;;19.85;64.28
75699;BME280;64313;51.018;13.742;2023-09-08T07:03:54;100271.41;;;19.89;64.52
75699;BME280;64313;51.018;13.742;2023-09-08T07:06:20;100276.13;;;19.94;64.67
75699;BME280;64313;51.018;13.742;2023-09-08T07:08:48;100271.59;;;19.99;64.49
75699;BME280;64313;51.018;13.742;2023-09-08T07:11:15;100268.72;;;20.06;63.99
75699;BME280;64313;51.018;13.742;2023-09-08T07:13:41;100270.41;;;20.12;63.85
75699;BME280;64313;51.018;13.742;2023-09-08T07:16:06;100264.81;;;20.19;63.68
75699;BME280;64313;51.018;13.742;2023-09-08T07:18:32;100269.81;;;20.27;63.68
75699;BME280;64313;51.018;13.742;2023-09-08T07:21:02;100271.78;;;20.31;63.09
75699;BME280;64313;51.018;13.742;2023-09-08T07:23:27;100270.28;;;20.41;63.13
75699;BME280;64313;51.018;13.742;2023-09-08T07:25:53;100272.25;;;20.45;63.02
75699;BME280;64313;51.018;13.742;2023-09-08T07:28:22;100257.34;;;20.48;62.86
75699;BME280;64313;51.018;13.742;2023-09-08T07:30:47;100265.34;;;20.55;63.03
75699;BME280;64313;51.018;13.742;2023-09-08T07:33:13;100266.22;;;20.60;62.77
75699;BME280;64313;51.018;13.742;2023-09-08T07:35:39;100263.34;;;20.67;62.57
75699;BME280;64313;51.018;13.742;2023-09-08T07:38:06;100261.25;;;20.74;62.64
75699;BME280;64313;51.018;13.742;2023-09-08T07:40:33;100261.63;;;20.83;62.58
75699;BME280;64313;51.018;13.742;2023-09-08T07:42:58;100271.22;;;20.90;62.93
75699;BME280;64313;51.018;13.742;2023-09-08T07:45:24;100262.88;;;20.97;62.66
75699;BME280;64313;51.018;13.742;2023-09-08T07:47:49;100262.19;;;21.07;62.64
75699;BME280;64313;51.018;13.742;2023-09-08T07:50:25;100258.13;;;21.09;62.66
75699;BME280;64313;51.018;13.742;2023-09-08T07:52:52;100261.94;;;21.13;62.39
75699;BME280;64313;51.018;13.742;2023-09-08T07:55:18;100262.00;;;21.18;62.43
75699;BME280;64313;51.018;13.742;2023-09-08T07:57:45;100266.69;;;21.23;62.85
75699;BME280;64313;51.018;13.742;2023-09-08T08:00:14;100265.69;;;21.29;62.87
75699;BME280;64313;51.018;13.742;2023-09-08T08:02:42;100270.41;;;21.39;62.71
75699;BME280;64313;51.018;13.742;2023-09-08T08:05:08;100265.84;;;21.45;62.87
75699;BME280;64313;51.018;13.742;2023-09-08T08:07:33;100270.25;;;21.51;62.96
75699;BME280;64313;51.018;13.742;2023-09-08T08:09:59;100266.47;;;21.57;62.94
75699;BME280;64313;51.018;13.742;2023-09-08T08:12:24;100269.81;;;21.64;62.83
75699;BME280;64313;51.018;13.742;2023-09-08T08:14:50;100265.50;;;21.68;62.55
75699;BME280;64313;51.018;13.742;2023-09-08T08:17:15;100265.03;;;21.76;61.98
75699;BME280;64313;51.018;13.742;2023-09-08T08:19:42;100264.25;;;21.81;62.10
75699;BME280;64313;51.018;13.742;2023-09-08T08:22:08;100264.03;;;21.88;61.93
75699;BME280;64313;51.018;13.742;2023-09-08T08:24:33;100259.69;;;21.92;61.91
75699;BME280;64313;51.018;13.742;2023-09-08T08:26:58;100254.84;;;21.99;61.68
75699;BME280;64313;51.018;13.742;2023-09-08T08:29:27;100249.47;;;22.09;61.14
75699;BME280;64313;51.018;13.742;2023-09-08T08:31:52;100249.25;;;22.16;61.23
75699;BME280;64313;51.018;13.742;2023-09-08T08:34:17;100255.31;;;22.23;61.09
75699;BME280;64313;51.018;13.742;2023-09-08T08:36:43;100242.28;;;22.30;60.62
75699;BME280;64313;51.018;13.742;2023-09-08T08:39:08;100247.50;;;22.42;60.67
75699;BME280;64313;51.018;13.742;2023-09-08T08:41:33;100244.28;;;22.50;60.28
75699;BME280;64313;51.018;13.742;2023-09-08T08:44:03;100250.31;;;22.57;60.10
75699;BME280;64313;51.018;13.742;2023-09-08T08:46:30;100244.09;;;22.67;59.91
75699;BME280;64313;51.018;13.742;2023-09-08T08:48:56;100236.22;;;22.76;59.84
75699;BME280;64313;51.018;13.742;2023-09-08T08:51:22;100240.84;;;22.80;59.92
75699;BME280;64313;51.018;13.742;2023-09-08T08:53:48;100230.81;;;22.86;59.18
75699;BME280;64313;51.018;13.742;2023-09-08T08:56:13;100235.72;;;22.94;59.38
75699;BME280;64313;51.018;13.742;2023-09-08T08:58:39;100238.50;;;23.04;58.96
75699;BME280;64313;51.018;13.742;2023-09-08T09:01:06;100230.59;;;23.13;59.10
75699;BME280;64313;51.018;13.742;2023-09-08T09:03:33;100228.72;;;23.19;59.00
75699;BME280;64313;51.018;13.742;2023-09-08T09:06:00;100223.28;;;23.29;58.88
75699;BME280;64313;51.018;13.742;2023-09-08T09:08:26;100227.38;;;23.37;58.82
75699;BME280;64313;51.018;13.742;2023-09-08T09:10:52;100222.75;;;23.42;58.21
75699;BME280;64313;51.018;13.742;2023-09-08T09:13:17;100227.09;;;23.48;58.35
75699;BME280;64313;51.018;13.742;2023-09-08T09:15:43;100220.00;;;23.58;58.12
75699;BME280;64313;51.018;13.742;2023-09-08T09:18:09;100218.38;;;23.67;57.89
75699;BME280;64313;51.018;13.742;2023-09-08T09:20:35;100217.59;;;23.77;58.04
75699;BME280;64313;51.018;13.742;2023-09-08T09:23:00;100216.75;;;23.86;57.15
75699;BME280;64313;51.018;13.742;2023-09-08T09:25:28;100209.63;;;23.95;56.62
75699;BME280;64313;51.018;13.742;2023-09-08T09:27:56;100203.09;;;24.02;56.73
75699;BME280;64313;51.018;13.742;2023-09-08T09:30:22;100206.88;;;24.11;56.26
75699;BME280;64313;51.018;13.742;2023-09-08T09:32:57;100203.56;;;24.19;56.18
75699;BME280;64313;51.018;13.742;2023-09-08T09:35:39;100212.03;;;24.28;52.82
75699;BME280;64313;51.018;13.742;2023-09-08T09:38:04;100195.59;;;24.33;52.40
75699;BME280;64313;51.018;13.742;2023-09-08T09:40:30;100198.56;;;24.41;51.56
75699;BME280;64313;51.018;13.742;2023-09-08T09:42:57;100202.66;;;24.49;50.68
75699;BME280;64313;51.018;13.742;2023-09-08T09:45:25;100197.72;;;24.56;49.25
75699;BME280;64313;51.018;13.742;2023-09-08T09:47:50;100190.03;;;24.64;48.76
75699;BME280;64313;51.018;13.742;2023-09-08T09:50:27;100192.72;;;24.74;48.53
75699;BME280;64313;51.018;13.742;2023-09-08T09:52:55;100183.09;;;24.81;48.23
75699;BME280;64313;51.018;13.742;2023-09-08T09:55:20;100188.25;;;24.88;47.76
75699;BME280;64313;51.018;13.742;2023-09-08T09:57:47;100198.31;;;24.98;47.94
75699;BME280;64313;51.018;13.742;2023-09-08T10:00:15;100184.03;;;25.06;45.79
75699;BME280;64313;51.018;13.742;2023-09-08T10:02:41;100186.75;;;25.11;46.05
75699;BME280;64313;51.018;13.742;2023-09-08T10:05:11;100186.16;;;25.19;45.65
75699;BME280;64313;51.018;13.742;2023-09-08T10:07:39;100181.50;;;25.25;45.85
75699;BME280;64313;51.018;13.742;2023-09-08T10:10:06;100184.69;;;25.32;45.26
75699;BME280;64313;51.018;13.742;2023-09-08T10:12:34;100184.66;;;25.37;44.88
75699;BME280;64313;51.018;13.742;2023-09-08T10:15:02;100189.75;;;25.49;45.33
75699;BME280;64313;51.018;13.742;2023-09-08T10:17:30;100189.13;;;25.57;45.57
75699;BME280;64313;51.018;13.742;2023-09-08T10:19:57;100181.19;;;25.61;45.09
75699;BME280;64313;51.018;13.742;2023-09-08T10:22:29;100175.06;;;25.69;44.59
75699;BME280;64313;51.018;13.742;2023-09-08T10:24:57;100174.44;;;25.77;43.84
75699;BME280;64313;51.018;13.742;2023-09-08T10:27:26;100169.22;;;25.81;42.30
75699;BME280;64313;51.018;13.742;2023-09-08T10:29:52;100173.28;;;25.88;43.30
75699;BME280;64313;51.018;13.742;2023-09-08T10:32:18;100171.81;;;25.96;43.53
75699;BME280;64313;51.018;13.742;2023-09-08T10:34:46;100175.91;;;25.99;42.29
75699;BME280;64313;51.018;13.742;2023-09-08T10:37:25;100164.88;;;26.04;41.73
75699;BME280;64313;51.018;13.742;2023-09-08T10:39:51;100168.91;;;26.11;42.50
75699;BME280;64313;51.018;13.742;2023-09-08T10:44:43;100163.81;;;26.24;41.51
75699;BME280;64313;51.018;13.742;2023-09-08T10:47:09;100160.44;;;26.32;41.83
75699;BME280;64313;51.018;13.742;2023-09-08T10:49:36;100157.03;;;26.40;41.51
75699;BME280;64313;51.018;13.742;2023-09-08T10:52:08;100158.31;;;26.48;41.72
75699;BME280;64313;51.018;13.742;2023-09-08T10:54:44;100145.94;;;26.50;40.79
75699;BME280;64313;51.018;13.742;2023-09-08T10:57:14;100155.16;;;26.60;41.62
75699;BME280;64313;51.018;13.742;2023-09-08T10:59:45;100144.66;;;26.67;40.84
75699;BME280;64313;51.018;13.742;2023-09-08T11:02:36;100145.91;;;26.74;41.49
75699;BME280;64313;51.018;13.742;2023-09-08T11:05:04;100151.31;;;26.80;40.73
75699;BME280;64313;51.018;13.742;2023-09-08T11:07:31;100146.56;;;26.85;40.77
75699;BME280;64313;51.018;13.742;2023-09-08T11:09:57;100142.94;;;26.90;40.56
75699;BME280;64313;51.018;13.742;2023-09-08T11:12:26;100139.31;;;26.94;39.04
75699;BME280;64313;51.018;13.742;2023-09-08T11:14:51;100142.25;;;26.98;39.09
75699;BME280;64313;51.018;13.742;2023-09-08T11:17:17;100144.09;;;27.03;38.53
75699;BME280;64313;51.018;13.742;2023-09-08T11:19:45;100144.03;;;27.08;39.18
75699;BME280;64313;51.018;13.742;2023-09-08T11:22:11;100145.88;;;27.12;38.26
75699;BME280;64313;51.018;13.742;2023-09-08T11:24:36;100139.22;;;27.18;38.49
75699;BME280;64313;51.018;13.742;2023-09-08T11:27:02;100142.78;;;27.19;37.50
75699;BME280;64313;51.018;13.742;2023-09-08T11:29:29;100147.69;;;27.22;37.86
75699;BME280;64313;51.018;13.742;2023-09-08T11:31:54;100144.53;;;27.29;37.88
75699;BME280;64313;51.018;13.742;2023-09-08T11:34:20;100142.09;;;27.27;37.65
75699;BME280;64313;51.018;13.742;2023-09-08T11:36:46;100134.59;;;27.33;38.02
75699;BME280;64313;51.018;13.742;2023-09-08T11:39:11;100136.44;;;27.37;37.53
75699;BME280;64313;51.018;13.742;2023-09-08T11:41:37;100134.69;;;27.41;37.49
75699;BME280;64313;51.018;13.742;2023-09-08T11:44:02;100140.41;;;27.45;37.29
75699;BME280;64313;51.018;13.742;2023-09-08T11:46:28;100130.75;;;27.48;36.95
75699;BME280;64313;51.018;13.742;2023-09-08T11:48:53;100130.16;;;27.51;38.33
75699;BME280;64313;51.018;13.742;2023-09-08T11:51:26;100125.38;;;27.56;37.51
75699;BME280;64313;51.018;13.742;2023-09-08T11:53:52;100128.53;;;27.63;38.12
75699;BME280;64313;51.018;13.742;2023-09-08T11:56:18;100130.38;;;27.68;38.74
75699;BME280;64313;51.018;13.742;2023-09-08T11:58:44;100128.69;;;27.72;36.21
75699;BME280;64313;51.018;13.742;2023-09-08T12:01:10;100132.75;;;27.75;37.22
75699;BME280;64313;51.018;13.742;2023-09-08T12:03:55;100127.97;;;27.80;36.49
75699;BME280;64313;51.018;13.742;2023-09-08T12:06:26;100125.75;;;27.82;36.71
75699;BME280;64313;51.018;13.742;2023-09-08T12:08:53;100128.94;;;27.90;36.82
75699;BME280;64313;51.018;13.742;2023-09-08T12:11:19;100128.31;;;27.93;36.47
75699;BME280;64313;51.018;13.742;2023-09-08T12:13:44;100119.75;;;27.94;36.44
75699;BME280;64313;51.018;13.742;2023-09-08T12:16:20;100123.22;;;28.00;37.05
75699;BME280;64313;51.018;13.742;2023-09-08T12:18:48;100118.44;;;28.05;37.54
75699;BME280;64313;51.018;13.742;2023-09-08T12:21:15;100118.31;;;28.11;37.31
75699;BME280;64313;51.018;13.742;2023-09-08T12:23:50;100115.97;;;28.18;37.64
75699;BME280;64313;51.018;13.742;2023-09-08T12:26:17;100109.25;;;28.24;37.45
75699;BME280;64313;51.018;13.742;2023-09-08T12:28:43;100112.09;;;28.33;37.69
75699;BME280;64313;51.018;13.742;2023-09-08T12:31:09;100109.22;;;28.38;37.79
75699;BME280;64313;51.018;13.742;2023-09-08T12:33:35;100100.16;;;28.37;36.71
75699;BME280;64313;51.018;13.742;2023-09-08T12:36:14;100092.09;;;28.41;36.65
75699;BME280;64313;51.018;13.742;2023-09-08T12:38:40;100082.41;;;28.43;36.57
75699;BME280;64313;51.018;13.742;2023-09-08T12:41:06;100085.72;;;28.45;36.16